Time;durP1;ratioP1;P1;durP2;ratioP2;P2;SDS_P1;SDS_P2;PMS_P1;PMS_P2;Temp;Humidity;BMP_temperature;BMP_pressure;BME280_temperature;BME280_humidity;BME280_pressure;Samples;Min_cycle;Max_cycle;Signal;HPM_P1;HPM_P2
2023/01/09 00:00:43;;;;;;;19.33;12.93;;;;;;;;;;5040574;28;20320;-75
2023/01/09 00:03:09;;;;;;;15.27;11.65;;;;;;;;;;5036583;28;20040;-75
2023/01/09 00:05:35;;;;;;;13.27;10.20;;;;;;;;;;5038442;28;20686;-75
2023/01/09 00:08:02;;;;;;;18.10;13.02;;;;;;;;;;5041180;28;20108;-75
2023/01/09 00:10:28;;;;;;;15.20;10.85;;;;;;;;;;5035506;28;20060;-76
2023/01/09 00:12:54;;;;;;;14.63;9.95;;;;;;;;;;5040367;28;20041;-75
2023/01/09 00:15:20;;;;;;;14.40;9.60;;;;;;;;;;5039724;28;20495;-75
2023/01/09 00:17:46;;;;;;;19.83;9.52;;;;;;;;;;5041612;28;20056;-75
2023/01/09 00:20:13;;;;;;;14.02;8.63;;;;;;;;;;5041688;28;20132;-74
2023/01/09 00:22:39;;;;;;;18.60;13.38;;;;;;;;;;5038380;28;20040;-75
2023/01/09 00:25:05;;;;;;;14.88;11.43;;;;;;;;;;5038404;28;20159;-75
2023/01/09 00:27:32;;;;;;;17.75;11.52;;;;;;;;;;5039567;28;20041;-74
2023/01/09 00:29:58;;;;;;;17.92;14.02;;;;;;;;;;5039905;28;20033;-75
2023/01/09 00:32:25;;;;;;;17.48;13.98;;;;;;;;;;5040018;28;20083;-75
2023/01/09 00:34:51;;;;;;;15.73;11.32;;;;;;;;;;5044798;28;20044;-75
2023/01/09 00:37:17;;;;;;;22.30;12.93;;;;;;;;;;5039079;28;20029;-75
2023/01/09 00:39:43;;;;;;;18.83;14.63;;;;;;;;;;5040444;28;20037;-75
2023/01/09 00:42:14;;;;;;;13.00;9.75;;;;;;;;;;5039233;28;20388;-75
2023/01/09 00:44:42;;;;;;;16.83;13.38;;;;;;;;;;5036936;28;20494;-75
2023/01/09 00:47:12;;;;;;;16.85;13.18;;;;;;;;;;5039117;28;20041;-75
2023/01/09 00:49:38;;;;;;;22.35;16.08;;;;;;;;;;5031345;28;20041;-75
2023/01/09 00:52:06;;;;;;;15.75;11.68;;;;;;;;;;5040478;28;20040;-75
2023/01/09 00:54:32;;;;;;;17.13;13.18;;;;;;;;;;5040900;28;20041;-75
2023/01/09 00:56:58;;;;;;;18.73;12.45;;;;;;;;;;5039153;28;20066;-75
2023/01/09 00:59:26;;;;;;;24.30;17.52;;;;;;;;;;5048275;28;20112;-75
2023/01/09 01:01:52;;;;;;;22.15;15.40;;;;;;;;;;5042897;28;20074;-75
2023/01/09 01:09:47;;;;;;;19.55;14.90;;;;;;;;;;5040704;28;20044;-75
2023/01/09 01:12:13;;;;;;;22.65;15.52;;;;;;;;;;5044367;28;20033;-75
2023/01/09 01:14:39;;;;;;;21.52;15.38;;;;;;;;;;5043134;28;20045;-75
2023/01/09 01:17:06;;;;;;;16.08;11.63;;;;;;;;;;5039903;28;20037;-75
2023/01/09 01:19:35;;;;;;;15.30;11.02;;;;;;;;;;5046178;28;20036;-75
2023/01/09 01:22:02;;;;;;;9.18;5.82;;;;;;;;;;5044613;28;20025;-75
2023/01/09 01:24:28;;;;;;;15.20;10.38;;;;;;;;;;5045181;28;20041;-75
2023/01/09 01:26:54;;;;;;;30.30;23.05;;;;;;;;;;5041914;28;20044;-75
2023/01/09 01:29:20;;;;;;;26.92;18.00;;;;;;;;;;5044937;28;20045;-75
2023/01/09 01:31:46;;;;;;;4.25;1.65;;;;;;;;;;5044774;28;20091;-75
2023/01/09 01:34:12;;;;;;;0.40;0.10;;;;;;;;;;5038454;28;20742;-75
2023/01/09 01:36:38;;;;;;;1.38;0.10;;;;;;;;;;5041512;28;20029;-75
2023/01/09 01:39:04;;;;;;;0.17;0.10;;;;;;;;;;5044198;28;20128;-75
2023/01/09 01:41:30;;;;;;;1.15;0.30;;;;;;;;;;5041916;28;20029;-75
2023/01/09 01:43:57;;;;;;;3.80;0.10;;;;;;;;;;5038954;28;20396;-75
2023/01/09 01:46:23;;;;;;;0.10;0.00;;;;;;;;;;5042967;28;20697;-75
2023/01/09 01:48:51;;;;;;;0.70;0.10;;;;;;;;;;5046107;28;20158;-75
2023/01/09 01:51:18;;;;;;;0.55;0.10;;;;;;;;;;5044354;28;20073;-75
2023/01/09 01:53:46;;;;;;;3.70;0.40;;;;;;;;;;5047773;28;20650;-75
2023/01/09 01:56:17;;;;;;;1.50;0.20;;;;;;;;;;5043958;28;20380;-76
2023/01/09 01:58:51;;;;;;;1.38;0.00;;;;;;;;;;5047111;28;20040;-75
2023/01/09 02:01:18;;;;;;;0.10;0.10;;;;;;;;;;5045538;28;20073;-75
2023/01/09 02:03:44;;;;;;;0.63;0.10;;;;;;;;;;5044449;28;20037;-75
2023/01/09 02:06:11;;;;;;;0.30;0.10;;;;;;;;;;5047656;28;20044;-75
2023/01/09 02:08:37;;;;;;;0.75;0.10;;;;;;;;;;5042401;28;20054;-75
2023/01/09 02:11:04;;;;;;;0.52;0.13;;;;;;;;;;5040601;28;20043;-75
2023/01/09 02:13:30;;;;;;;0.93;0.10;;;;;;;;;;5040195;28;20036;-75
2023/01/09 02:16:14;;;;;;;1.23;0.35;;;;;;;;;;5040498;28;20077;-75
2023/01/09 02:18:43;;;;;;;1.30;0.30;;;;;;;;;;5048622;28;20428;-75
2023/01/09 02:21:15;;;;;;;2.55;0.20;;;;;;;;;;5017154;28;20507;-75
2023/01/09 02:23:45;;;;;;;0.52;0.13;;;;;;;;;;5044267;28;20032;-75
2023/01/09 02:26:29;;;;;;;2.72;0.88;;;;;;;;;;5045045;28;20116;-75
2023/01/09 02:29:06;;;;;;;1.48;0.30;;;;;;;;;;5043035;28;20438;-75
2023/01/09 02:31:39;;;;;;;0.47;0.20;;;;;;;;;;5044656;28;20040;-75
2023/01/09 02:34:11;;;;;;;1.13;0.22;;;;;;;;;;5034690;28;20147;-74
2023/01/09 02:36:46;;;;;;;1.02;0.20;;;;;;;;;;5038691;28;20041;-75
2023/01/09 02:39:31;;;;;;;3.72;0.43;;;;;;;;;;5036967;28;20936;-75
2023/01/09 02:42:02;;;;;;;0.40;0.20;;;;;;;;;;5039409;28;20029;-75
2023/01/09 02:44:30;;;;;;;1.15;0.20;;;;;;;;;;5048369;28;20028;-75
2023/01/09 02:47:04;;;;;;;1.48;0.10;;;;;;;;;;5046166;28;20033;-75
2023/01/09 02:49:31;;;;;;;2.38;0.30;;;;;;;;;;5035843;28;20041;-75
2023/01/09 02:52:16;;;;;;;0.25;0.10;;;;;;;;;;5039744;28;20029;-75
2023/01/09 02:55:02;;;;;;;2.30;0.20;;;;;;;;;;5047273;28;20654;-75
2023/01/09 02:57:37;;;;;;;1.25;0.50;;;;;;;;;;5038212;28;20107;-75
2023/01/09 03:00:03;;;;;;;1.67;0.30;;;;;;;;;;5034579;28;20045;-75
2023/01/09 03:02:33;;;;;;;1.10;0.30;;;;;;;;;;5040828;28;20091;-75
2023/01/09 03:05:06;;;;;;;0.95;0.20;;;;;;;;;;5035621;28;20048;-75
2023/01/09 03:07:41;;;;;;;0.50;0.15;;;;;;;;;;5039241;28;20373;-75
2023/01/09 03:10:19;;;;;;;2.10;0.30;;;;;;;;;;5043332;28;20040;-75
2023/01/09 03:12:47;;;;;;;2.13;0.50;;;;;;;;;;5034743;28;20507;-75
2023/01/09 03:15:14;;;;;;;0.93;0.20;;;;;;;;;;5032930;28;20061;-75
2023/01/09 03:17:43;;;;;;;0.85;0.20;;;;;;;;;;5046993;28;20036;-75
2023/01/09 03:20:10;;;;;;;1.27;0.20;;;;;;;;;;5037942;28;20076;-75
2023/01/09 03:22:36;;;;;;;3.78;0.20;;;;;;;;;;5041591;28;20025;-75
2023/01/09 03:25:02;;;;;;;2.17;0.20;;;;;;;;;;5036987;28;20037;-75
2023/01/09 03:27:28;;;;;;;2.60;0.40;;;;;;;;;;5038283;28;20071;-75
2023/01/09 03:29:55;;;;;;;0.88;0.20;;;;;;;;;;5039828;28;20040;-75
2023/01/09 03:32:21;;;;;;;1.63;0.40;;;;;;;;;;5041715;28;20552;-75
2023/01/09 03:34:47;;;;;;;1.70;0.30;;;;;;;;;;5046074;28;20124;-75
2023/01/09 03:37:13;;;;;;;1.30;0.43;;;;;;;;;;5040211;28;20029;-75
2023/01/09 03:39:39;;;;;;;2.20;0.40;;;;;;;;;;5045789;28;20032;-75
2023/01/09 03:42:05;;;;;;;1.45;0.38;;;;;;;;;;5036961;28;20032;-75
2023/01/09 03:44:31;;;;;;;3.47;0.22;;;;;;;;;;5030385;28;20079;-75
2023/01/09 03:46:57;;;;;;;1.08;0.28;;;;;;;;;;5036983;28;20041;-75
2023/01/09 03:49:24;;;;;;;1.48;0.38;;;;;;;;;;5035237;28;20040;-75
2023/01/09 03:51:50;;;;;;;0.60;0.20;;;;;;;;;;5043107;28;20033;-75
2023/01/09 03:54:16;;;;;;;1.55;0.28;;;;;;;;;;5044100;28;20036;-75
2023/01/09 03:56:42;;;;;;;0.30;0.13;;;;;;;;;;5041716;28;20064;-75
2023/01/09 03:59:08;;;;;;;0.82;0.20;;;;;;;;;;5043302;28;20039;-75
2023/01/09 04:01:34;;;;;;;3.00;0.30;;;;;;;;;;5044920;28;20814;-75
2023/01/09 04:04:00;;;;;;;5.07;0.60;;;;;;;;;;5038509;28;20072;-75
2023/01/09 04:06:26;;;;;;;2.25;0.40;;;;;;;;;;5039862;28;20703;-75
2023/01/09 04:08:52;;;;;;;2.13;0.50;;;;;;;;;;5034061;28;20026;-75
2023/01/09 04:11:18;;;;;;;2.53;0.60;;;;;;;;;;5041334;28;20048;-75
2023/01/09 04:13:44;;;;;;;5.68;0.80;;;;;;;;;;5044060;28;20029;-75
2023/01/09 04:16:10;;;;;;;2.92;0.73;;;;;;;;;;5040760;28;20060;-75
2023/01/09 04:18:36;;;;;;;3.17;0.50;;;;;;;;;;5036320;28;20483;-75
2023/01/09 04:21:02;;;;;;;3.33;0.40;;;;;;;;;;5041851;28;20033;-75
2023/01/09 04:23:28;;;;;;;3.55;0.40;;;;;;;;;;5034875;28;20037;-75
2023/01/09 04:25:54;;;;;;;2.40;0.40;;;;;;;;;;5033908;28;20034;-75
2023/01/09 04:28:20;;;;;;;2.70;0.30;;;;;;;;;;5039391;28;20025;-75
2023/01/09 04:30:46;;;;;;;1.80;0.50;;;;;;;;;;5035215;28;20384;-75
2023/01/09 04:33:12;;;;;;;4.03;0.30;;;;;;;;;;5050766;28;20025;-75
2023/01/09 04:35:38;;;;;;;1.73;0.50;;;;;;;;;;5042195;28;20032;-75
2023/01/09 04:38:04;;;;;;;7.50;3.03;;;;;;;;;;5044694;28;20440;-75
2023/01/09 04:40:30;;;;;;;5.82;1.70;;;;;;;;;;5041995;28;20037;-75
2023/01/09 04:42:56;;;;;;;3.42;1.20;;;;;;;;;;5035784;28;20464;-75
2023/01/09 04:45:22;;;;;;;2.83;0.70;;;;;;;;;;5050316;28;20044;-75
2023/01/09 04:47:48;;;;;;;3.88;1.05;;;;;;;;;;5043817;28;20531;-75
2023/01/09 04:50:14;;;;;;;7.18;3.53;;;;;;;;;;5048507;28;20037;-75
2023/01/09 04:52:40;;;;;;;7.03;3.17;;;;;;;;;;5046561;28;20146;-75
2023/01/09 04:55:07;;;;;;;7.53;0.80;;;;;;;;;;5046389;28;20128;-75
2023/01/09 04:57:33;;;;;;;2.83;0.40;;;;;;;;;;5040475;28;20028;-75
2023/01/09 04:59:59;;;;;;;0.85;0.20;;;;;;;;;;5045927;28;20029;-75
2023/01/09 05:02:25;;;;;;;1.15;0.38;;;;;;;;;;5047411;28;20029;-75
2023/01/09 05:04:51;;;;;;;1.92;0.20;;;;;;;;;;5029847;28;20064;-75
2023/01/09 05:07:17;;;;;;;0.38;0.20;;;;;;;;;;5036394;28;20071;-75
2023/01/09 05:09:43;;;;;;;0.57;0.20;;;;;;;;;;5047527;28;20036;-75
2023/01/09 05:12:09;;;;;;;1.75;0.28;;;;;;;;;;5038756;28;20041;-75
2023/01/09 05:14:35;;;;;;;6.18;3.15;;;;;;;;;;5041278;28;20036;-75
2023/01/09 05:17:01;;;;;;;4.35;1.90;;;;;;;;;;5047704;28;20610;-75
2023/01/09 05:19:27;;;;;;;4.22;0.80;;;;;;;;;;5037524;28;20092;-75
2023/01/09 05:21:53;;;;;;;3.05;0.70;;;;;;;;;;5046231;28;20040;-75
2023/01/09 05:24:19;;;;;;;5.05;0.80;;;;;;;;;;5042792;28;20052;-75
2023/01/09 05:26:45;;;;;;;3.90;0.82;;;;;;;;;;5039998;28;20029;-75
2023/01/09 05:29:11;;;;;;;2.20;0.52;;;;;;;;;;5047220;28;20033;-75
2023/01/09 05:31:37;;;;;;;5.68;1.60;;;;;;;;;;5046102;28;20227;-75
2023/01/09 05:34:04;;;;;;;5.60;2.40;;;;;;;;;;5047190;28;20045;-75
2023/01/09 05:36:30;;;;;;;10.43;5.65;;;;;;;;;;5041771;28;20136;-75
2023/01/09 05:38:56;;;;;;;11.27;5.80;;;;;;;;;;5042331;28;20095;-75
2023/01/09 05:41:23;;;;;;;12.23;6.32;;;;;;;;;;5046015;28;20067;-75
2023/01/09 05:43:49;;;;;;;12.63;8.45;;;;;;;;;;5036700;28;20388;-75
2023/01/09 05:46:15;;;;;;;14.00;8.52;;;;;;;;;;5048188;28;20041;-75
2023/01/09 05:48:41;;;;;;;10.68;6.00;;;;;;;;;;5040196;28;20025;-75
2023/01/09 05:51:07;;;;;;;14.27;6.65;;;;;;;;;;5042229;28;20107;-75
2023/01/09 05:53:33;;;;;;;6.72;3.35;;;;;;;;;;5041595;28;20094;-75
2023/01/09 05:55:59;;;;;;;11.20;4.32;;;;;;;;;;5044730;28;20810;-75
2023/01/09 05:58:25;;;;;;;10.00;3.95;;;;;;;;;;5038609;28;20032;-75
2023/01/09 06:00:52;;;;;;;7.22;4.07;;;;;;;;;;5039372;28;20090;-75
2023/01/09 06:03:18;;;;;;;6.53;2.90;;;;;;;;;;5039978;28;20021;-75
2023/01/09 06:05:44;;;;;;;7.97;4.03;;;;;;;;;;5043137;28;20526;-75
2023/01/09 06:08:10;;;;;;;11.52;4.10;;;;;;;;;;5048159;28;20070;-75
2023/01/09 06:10:36;;;;;;;6.18;2.70;;;;;;;;;;5037010;28;20049;-75
2023/01/09 06:13:02;;;;;;;10.32;3.08;;;;;;;;;;5041905;28;20998;-75
2023/01/09 06:15:28;;;;;;;6.75;3.20;;;;;;;;;;5042555;28;20080;-75
2023/01/09 06:17:54;;;;;;;11.70;4.30;;;;;;;;;;5042044;28;20059;-75
2023/01/09 06:20:20;;;;;;;8.70;3.60;;;;;;;;;;5038396;28;20049;-75
2023/01/09 06:22:46;;;;;;;8.30;2.97;;;;;;;;;;5043570;28;20025;-75
2023/01/09 06:25:12;;;;;;;7.85;3.25;;;;;;;;;;5045014;28;20061;-75
2023/01/09 06:27:38;;;;;;;6.95;3.40;;;;;;;;;;5045974;28;20033;-75
2023/01/09 06:30:05;;;;;;;7.88;3.53;;;;;;;;;;5044567;28;20037;-75
2023/01/09 06:32:31;;;;;;;15.80;4.53;;;;;;;;;;5042145;28;20629;-75
2023/01/09 06:34:57;;;;;;;13.07;5.32;;;;;;;;;;5045667;28;20044;-75
2023/01/09 06:37:23;;;;;;;12.35;5.25;;;;;;;;;;5041148;28;20030;-75
2023/01/09 06:39:49;;;;;;;13.27;5.07;;;;;;;;;;5044787;28;20033;-75
2023/01/09 06:42:15;;;;;;;13.90;5.00;;;;;;;;;;5043886;28;20052;-75
2023/01/09 06:44:41;;;;;;;12.30;6.85;;;;;;;;;;5042181;28;20033;-75
2023/01/09 06:47:07;;;;;;;15.27;6.75;;;;;;;;;;5036373;28;20032;-75
2023/01/09 06:49:32;;;;;;;19.95;8.32;;;;;;;;;;5043511;28;20029;-75
2023/01/09 06:52:04;;;;;;;13.25;5.55;;;;;;;;;;5037633;28;20033;-75
2023/01/09 06:54:30;;;;;;;11.18;3.72;;;;;;;;;;5041879;28;20048;-75
2023/01/09 06:56:56;;;;;;;7.28;3.80;;;;;;;;;;5042880;28;20090;-76
2023/01/09 06:59:22;;;;;;;8.88;4.53;;;;;;;;;;5042115;28;20079;-76
2023/01/09 07:01:49;;;;;;;12.65;5.30;;;;;;;;;;5034115;28;20240;-75
2023/01/09 07:04:16;;;;;;;9.48;4.82;;;;;;;;;;5039592;28;20048;-75
2023/01/09 07:06:42;;;;;;;9.90;4.70;;;;;;;;;;5038715;28;20104;-73
2023/01/09 07:09:12;;;;;;;9.63;4.65;;;;;;;;;;5040103;28;20144;-75
2023/01/09 07:11:38;;;;;;;11.10;5.07;;;;;;;;;;5040272;28;20029;-75
2023/01/09 07:14:04;;;;;;;12.48;5.60;;;;;;;;;;5043525;28;20042;-75
2023/01/09 07:16:30;;;;;;;16.33;5.78;;;;;;;;;;5040661;28;20067;-75
2023/01/09 07:18:56;;;;;;;13.07;5.85;;;;;;;;;;5040504;28;20025;-75
2023/01/09 07:21:22;;;;;;;28.67;11.63;;;;;;;;;;5035623;28;20380;-75
2023/01/09 07:23:48;;;;;;;26.88;13.20;;;;;;;;;;5040169;28;20033;-75
2023/01/09 07:26:14;;;;;;;28.83;15.00;;;;;;;;;;5041670;28;20049;-75
2023/01/09 07:28:40;;;;;;;34.35;18.35;;;;;;;;;;5016475;28;22112;-75
2023/01/09 07:31:06;;;;;;;42.00;20.90;;;;;;;;;;5045588;28;20040;-75
2023/01/09 07:33:33;;;;;;;30.38;16.23;;;;;;;;;;5040512;28;20060;-75
2023/01/09 07:35:59;;;;;;;17.35;7.60;;;;;;;;;;5043697;28;20445;-75
2023/01/09 07:38:25;;;;;;;10.88;5.63;;;;;;;;;;5034483;28;20540;-75
2023/01/09 07:40:51;;;;;;;6.72;1.98;;;;;;;;;;5044827;28;20037;-75
2023/01/09 07:43:17;;;;;;;5.88;1.60;;;;;;;;;;5033648;28;20029;-75
2023/01/09 07:45:45;;;;;;;3.42;1.23;;;;;;;;;;5040902;28;20033;-74
2023/01/09 07:48:11;;;;;;;7.30;1.50;;;;;;;;;;5036679;28;20060;-75
2023/01/09 07:50:37;;;;;;;15.82;7.85;;;;;;;;;;5037350;28;20060;-75
2023/01/09 07:53:03;;;;;;;12.52;4.75;;;;;;;;;;5041453;28;20086;-75
2023/01/09 07:55:29;;;;;;;11.82;4.65;;;;;;;;;;5038103;28;20062;-75
2023/01/09 07:57:55;;;;;;;15.52;8.70;;;;;;;;;;5031348;28;20483;-75
2023/01/09 08:00:21;;;;;;;8.77;4.50;;;;;;;;;;5040617;28;20030;-74
2023/01/09 08:02:51;;;;;;;19.25;9.07;;;;;;;;;;5041483;28;20492;-75
2023/01/09 08:05:18;;;;;;;13.05;8.68;;;;;;;;;;5039867;28;20035;-75
2023/01/09 08:07:44;;;;;;;14.68;9.60;;;;;;;;;;5037259;28;20798;-75
2023/01/09 08:10:11;;;;;;;17.77;11.60;;;;;;;;;;5045432;28;20037;-75
2023/01/09 08:12:37;;;;;;;17.35;9.93;;;;;;;;;;5037519;28;20029;-75
2023/01/09 08:15:03;;;;;;;13.05;7.53;;;;;;;;;;5039469;28;20066;-75
2023/01/09 08:17:29;;;;;;;6.90;1.60;;;;;;;;;;5035529;28;20033;-75
2023/01/09 08:19:55;;;;;;;8.13;1.30;;;;;;;;;;5037403;28;20029;-75
2023/01/09 08:22:21;;;;;;;8.15;2.78;;;;;;;;;;5035126;28;20084;-75
2023/01/09 08:24:47;;;;;;;8.13;1.77;;;;;;;;;;5037006;28;20036;-75
2023/01/09 08:27:13;;;;;;;5.63;1.35;;;;;;;;;;5037274;28;20489;-75
2023/01/09 08:29:39;;;;;;;4.03;1.70;;;;;;;;;;5041548;28;20033;-75
2023/01/09 08:32:05;;;;;;;3.83;1.00;;;;;;;;;;5044937;28;20514;-75
2023/01/09 08:34:31;;;;;;;4.15;0.90;;;;;;;;;;5039920;28;20033;-75
2023/01/09 08:36:58;;;;;;;3.58;0.70;;;;;;;;;;5042693;28;20025;-75
2023/01/09 08:39:24;;;;;;;2.63;0.60;;;;;;;;;;5024885;28;20033;-75
2023/01/09 08:47:21;;;;;;;4.43;0.80;;;;;;;;;;5042968;28;20443;-75
2023/01/09 08:49:47;;;;;;;6.95;1.40;;;;;;;;;;5037009;28;20095;-75
2023/01/09 08:52:13;;;;;;;3.15;1.10;;;;;;;;;;5034727;28;20041;-75
2023/01/09 08:54:39;;;;;;;8.73;1.40;;;;;;;;;;5034844;28;20612;-75
2023/01/09 08:57:06;;;;;;;4.38;1.10;;;;;;;;;;5041559;28;20065;-75
2023/01/09 08:59:32;;;;;;;6.78;1.60;;;;;;;;;;5040136;28;20028;-75
2023/01/09 09:01:58;;;;;;;6.80;2.17;;;;;;;;;;5038359;28;20028;-75
2023/01/09 09:04:24;;;;;;;7.93;1.95;;;;;;;;;;5039733;28;20108;-75
2023/01/09 09:06:50;;;;;;;6.63;2.03;;;;;;;;;;5037479;28;20034;-75
2023/01/09 09:09:17;;;;;;;7.93;2.13;;;;;;;;;;5043237;28;20041;-75
2023/01/09 09:11:43;;;;;;;4.57;1.10;;;;;;;;;;5037141;28;20028;-75
2023/01/09 09:16:54;;;;;;;3.80;1.30;;;;;;;;;;5036843;28;20044;-75
2023/01/09 09:19:21;;;;;;;8.38;1.33;;;;;;;;;;5043037;28;20112;-75
2023/01/09 09:21:47;;;;;;;5.82;1.02;;;;;;;;;;5040652;28;20369;-75
2023/01/09 09:24:14;;;;;;;3.63;1.20;;;;;;;;;;5043382;28;20067;-75
2023/01/09 09:26:40;;;;;;;3.75;1.38;;;;;;;;;;5044218;28;20143;-74
2023/01/09 09:29:06;;;;;;;7.65;2.15;;;;;;;;;;5039003;28;20147;-75
2023/01/09 09:31:32;;;;;;;8.88;3.03;;;;;;;;;;5039917;28;20037;-75
2023/01/09 09:33:58;;;;;;;10.93;3.63;;;;;;;;;;5039897;28;20040;-75
2023/01/09 09:36:24;;;;;;;10.07;3.30;;;;;;;;;;5033626;28;20037;-75
2023/01/09 09:38:50;;;;;;;9.02;2.38;;;;;;;;;;5046594;28;20460;-75
2023/01/09 09:47:25;;;;;;;7.53;2.72;;;;;;;;;;5039726;28;20090;-75
2023/01/09 09:50:04;;;;;;;10.48;3.25;;;;;;;;;;5041347;28;20036;-75
2023/01/09 09:52:32;;;;;;;10.35;4.85;;;;;;;;;;5040407;28;20072;-75
2023/01/09 09:55:01;;;;;;;12.68;3.95;;;;;;;;;;5047212;28;20037;-75
2023/01/09 09:57:37;;;;;;;6.25;2.05;;;;;;;;;;5045319;28;20074;-75
2023/01/09 10:00:05;;;;;;;8.70;3.53;;;;;;;;;;5042016;28;20033;-75
2023/01/09 10:02:37;;;;;;;13.82;4.47;;;;;;;;;;5042546;28;20033;-75
2023/01/09 10:05:03;;;;;;;;;;;;;;;;;;5041545;28;20037;-75
2023/01/09 10:07:32;;;;;;;8.05;3.70;;;;;;;;;;5036825;28;19917;-75
2023/01/09 10:10:04;;;;;;;12.60;4.32;;;;;;;;;;5040551;28;20109;-75
2023/01/09 10:12:31;;;;;;;8.32;3.92;;;;;;;;;;5045248;28;20585;-75
2023/01/09 10:15:02;;;;;;;10.88;4.53;;;;;;;;;;5045555;28;20119;-75
2023/01/09 10:17:31;;;;;;;10.38;3.92;;;;;;;;;;5040632;28;20548;-75
2023/01/09 10:20:16;;;;;;;9.73;3.42;;;;;;;;;;5048969;28;20675;-75
2023/01/09 10:22:59;;;;;;;8.77;2.88;;;;;;;;;;5041446;28;20037;-75
2023/01/09 10:25:36;;;;;;;9.70;2.70;;;;;;;;;;5041197;28;20052;-75
2023/01/09 10:28:20;;;;;;;7.68;1.98;;;;;;;;;;5034715;28;20426;-76
2023/01/09 10:30:48;;;;;;;7.50;2.67;;;;;;;;;;5039032;28;20025;-75
2023/01/09 10:33:32;;;;;;;9.05;3.17;;;;;;;;;;5044630;28;20048;-75
2023/01/09 10:35:58;;;;;;;11.32;3.28;;;;;;;;;;5035882;28;20333;-75
2023/01/09 10:38:36;;;;;;;7.25;2.50;;;;;;;;;;5036371;28;20041;-75
2023/01/09 10:41:07;;;;;;;7.13;2.00;;;;;;;;;;5036693;28;20029;-75
2023/01/09 10:43:41;;;;;;;2.95;0.85;;;;;;;;;;5041230;28;20029;-75
2023/01/09 10:46:10;;;;;;;5.25;1.10;;;;;;;;;;5041724;28;20060;-75
2023/01/09 10:48:37;;;;;;;3.58;0.85;;;;;;;;;;5040352;28;20033;-75
2023/01/09 10:51:11;;;;;;;4.75;0.95;;;;;;;;;;5040286;28;20353;-76
2023/01/09 10:53:41;;;;;;;4.43;0.85;;;;;;;;;;5040183;28;20070;-75
2023/01/09 10:56:13;;;;;;;5.63;1.05;;;;;;;;;;5037727;28;20029;-75
2023/01/09 10:58:39;;;;;;;10.60;1.47;;;;;;;;;;5037847;28;20087;-75
2023/01/09 11:01:05;;;;;;;5.07;1.20;;;;;;;;;;5038919;28;20770;-75
2023/01/09 11:03:31;;;;;;;11.52;3.35;;;;;;;;;;5042772;28;20099;-75
2023/01/09 11:05:58;;;;;;;13.68;3.83;;;;;;;;;;5047984;28;20113;-75
2023/01/09 11:08:30;;;;;;;12.10;5.63;;;;;;;;;;5040929;28;20025;-75
2023/01/09 11:10:58;;;;;;;17.85;4.50;;;;;;;;;;5043054;28;20112;-75
2023/01/09 11:13:31;;;;;;;8.88;2.83;;;;;;;;;;5038556;28;20033;-75
2023/01/09 11:16:09;;;;;;;9.45;3.60;;;;;;;;;;5042115;28;20043;-75
2023/01/09 11:18:57;;;;;;;6.97;2.00;;;;;;;;;;5038444;28;20032;-75
2023/01/09 11:21:36;;;;;;;9.15;3.17;;;;;;;;;;5044018;28;20364;-75
2023/01/09 11:24:25;;;;;;;10.68;3.33;;;;;;;;;;5039069;28;20079;-75
2023/01/09 11:26:52;;;;;;;7.85;3.60;;;;;;;;;;5039576;28;20029;-75
2023/01/09 11:29:20;;;;;;;8.68;4.22;;;;;;;;;;5040780;28;20075;-74
2023/01/09 11:31:54;;;;;;;10.25;3.38;;;;;;;;;;5044327;28;20062;-75
2023/01/09 11:34:22;;;;;;;7.85;2.03;;;;;;;;;;5041986;28;20044;-75
2023/01/09 11:36:48;;;;;;;5.57;1.05;;;;;;;;;;5039169;28;20029;-75
2023/01/09 11:39:28;;;;;;;4.72;1.27;;;;;;;;;;5041080;28;20041;-77
2023/01/09 11:42:01;;;;;;;8.50;1.83;;;;;;;;;;5040695;28;20828;-76
2023/01/09 11:44:28;;;;;;;5.15;1.50;;;;;;;;;;5041219;28;20508;-74
2023/01/09 11:46:54;;;;;;;6.18;1.42;;;;;;;;;;5041752;28;20028;-75
2023/01/09 11:49:22;;;;;;;5.38;1.17;;;;;;;;;;5040172;28;20531;-75
2023/01/09 11:52:08;;;;;;;4.80;1.35;;;;;;;;;;5037373;28;20847;-75
2023/01/09 11:54:35;;;;;;;8.95;1.40;;;;;;;;;;5029370;28;20044;-75
2023/01/09 11:57:01;;;;;;;7.22;1.30;;;;;;;;;;5042440;28;20037;-74
2023/01/09 11:59:28;;;;;;;6.72;1.30;;;;;;;;;;5037118;28;20075;-75
2023/01/09 12:01:54;;;;;;;8.50;1.60;;;;;;;;;;5034660;28;20053;-75
2023/01/09 12:04:22;;;;;;;5.30;1.00;;;;;;;;;;5040205;28;20087;-76
2023/01/09 12:07:03;;;;;;;6.05;1.33;;;;;;;;;;5042160;28;20037;-75
2023/01/09 12:09:29;;;;;;;4.65;0.85;;;;;;;;;;5042708;28;20037;-75
2023/01/09 12:12:11;;;;;;;5.05;0.95;;;;;;;;;;5039554;28;20029;-74
2023/01/09 12:14:37;;;;;;;;;;;;;;;;;;5042241;28;20144;-74
2023/01/09 12:17:19;;;;;;;10.80;3.75;;;;;;;;;;5044042;28;20665;-75
2023/01/09 12:19:57;;;;;;;9.57;3.05;;;;;;;;;;5045734;28;20044;-75
2023/01/09 12:22:26;;;;;;;7.32;2.72;;;;;;;;;;5041739;28;20067;-75
2023/01/09 12:25:10;;;;;;;11.35;3.53;;;;;;;;;;5045450;28;20043;-74
2023/01/09 12:27:48;;;;;;;12.68;3.30;;;;;;;;;;5040631;28;20116;-74
2023/01/09 12:30:37;;;;;;;12.25;3.88;;;;;;;;;;5042018;28;20125;-74
2023/01/09 12:33:26;;;;;;;9.77;3.65;;;;;;;;;;5038986;28;20048;-74
2023/01/09 12:35:53;;;;;;;12.00;3.13;;;;;;;;;;5040884;28;20032;-74
2023/01/09 12:38:20;;;;;;;11.57;3.00;;;;;;;;;;5036670;28;20108;-74
2023/01/09 12:41:16;;;;;;;10.45;2.70;;;;;;;;;;5043259;28;20036;-74
2023/01/09 12:43:52;;;;;;;10.10;2.92;;;;;;;;;;5044435;28;20087;-74
2023/01/09 12:46:21;;;;;;;12.88;3.08;;;;;;;;;;5041241;28;20144;-75
2023/01/09 12:49:05;;;;;;;8.35;2.20;;;;;;;;;;5043861;28;20379;-74
2023/01/09 12:51:35;;;;;;;9.90;3.80;;;;;;;;;;5039745;28;20588;-74
2023/01/09 12:54:20;;;;;;;11.43;3.50;;;;;;;;;;5045356;28;20069;-75
2023/01/09 12:56:57;;;;;;;15.20;5.10;;;;;;;;;;5048273;28;20048;-74
2023/01/09 12:59:31;;;;;;;11.07;3.80;;;;;;;;;;5045703;28;20032;-75
2023/01/09 13:02:20;;;;;;;13.88;4.35;;;;;;;;;;5048270;28;20534;-75
2023/01/09 13:04:56;;;;;;;13.80;3.10;;;;;;;;;;5024636;28;20041;-74
2023/01/09 13:07:23;;;;;;;5.47;1.40;;;;;;;;;;5041481;28;20325;-75
2023/01/09 13:09:53;;;;;;;6.32;1.30;;;;;;;;;;5035358;28;20029;-75
2023/01/09 13:12:20;;;;;;;10.80;2.42;;;;;;;;;;5047667;28;20079;-74
2023/01/09 13:14:50;;;;;;;8.57;2.95;;;;;;;;;;5047553;28;20059;-75
2023/01/09 13:17:36;;;;;;;27.85;11.73;;;;;;;;;;5048824;28;20037;-74
2023/01/09 13:20:04;;;;;;;20.63;11.90;;;;;;;;;;5000800;28;20120;-75
2023/01/09 13:22:30;;;;;;;14.10;7.68;;;;;;;;;;5025292;28;20045;-75
2023/01/09 13:25:14;;;;;;;15.02;7.50;;;;;;;;;;5046235;28;20029;-74
2023/01/09 13:27:43;;;;;;;11.43;5.75;;;;;;;;;;5041610;28;20049;-75
2023/01/09 13:30:09;;;;;;;7.75;2.30;;;;;;;;;;5040556;28;20128;-73
2023/01/09 13:32:53;;;;;;;11.25;1.70;;;;;;;;;;5051239;28;20037;-75
2023/01/09 13:35:19;;;;;;;5.68;0.98;;;;;;;;;;5040032;28;20036;-74
2023/01/09 13:37:50;;;;;;;9.90;2.13;;;;;;;;;;5046275;28;20041;-74
2023/01/09 13:40:19;;;;;;;9.13;1.65;;;;;;;;;;5042607;28;20075;-74
2023/01/09 13:43:02;;;;;;;9.10;1.95;;;;;;;;;;5046472;28;20037;-74
2023/01/09 13:45:29;;;;;;;9.63;4.53;;;;;;;;;;5038564;28;20029;-74
2023/01/09 13:48:12;;;;;;;7.20;3.03;;;;;;;;;;5045532;28;20033;-74
2023/01/09 13:50:39;;;;;;;9.02;2.00;;;;;;;;;;5045519;28;20024;-74
2023/01/09 13:53:17;;;;;;;7.88;1.83;;;;;;;;;;5041656;28;20059;-74
2023/01/09 13:55:59;;;;;;;5.20;1.45;;;;;;;;;;5042627;28;20021;-74
2023/01/09 13:58:30;;;;;;;10.00;1.60;;;;;;;;;;5040944;28;20037;-74
2023/01/09 14:00:58;;;;;;;8.45;1.33;;;;;;;;;;5038480;28;20721;-74
2023/01/09 14:03:31;;;;;;;10.43;1.75;;;;;;;;;;5037374;28;20033;-74
2023/01/09 14:05:57;;;;;;;5.88;1.20;;;;;;;;;;5047403;28;20540;-74
2023/01/09 14:08:25;;;;;;;7.10;0.75;;;;;;;;;;5047084;28;20116;-73
2023/01/09 14:10:54;;;;;;;5.25;1.00;;;;;;;;;;5039940;28;20044;-74
2023/01/09 14:13:22;;;;;;;3.95;0.50;;;;;;;;;;5042943;28;20507;-73
2023/01/09 14:15:49;;;;;;;5.75;0.70;;;;;;;;;;5041321;28;20095;-74
2023/01/09 14:18:32;;;;;;;10.57;2.70;;;;;;;;;;5041314;28;20029;-75
2023/01/09 14:21:00;;;;;;;6.78;1.98;;;;;;;;;;5035998;28;20468;-74
2023/01/09 14:23:49;;;;;;;7.95;2.28;;;;;;;;;;5043948;28;20049;-74
2023/01/09 14:26:16;;;;;;;15.73;2.30;;;;;;;;;;5029592;28;20049;-74
2023/01/09 14:28:43;;;;;;;10.20;1.40;;;;;;;;;;5047539;28;20026;-77
2023/01/09 14:31:09;;;;;;;3.30;0.65;;;;;;;;;;5042318;28;20103;-76
2023/01/09 14:33:36;;;;;;;4.68;0.75;;;;;;;;;;5041534;28;20108;-76
2023/01/09 14:36:05;;;;;;;6.70;1.35;;;;;;;;;;5042354;28;20125;-77
2023/01/09 14:38:35;;;;;;;5.85;1.42;;;;;;;;;;5039623;28;20045;-77
2023/01/09 14:41:05;;;;;;;6.72;0.90;;;;;;;;;;5049806;28;20112;-77
2023/01/09 14:43:32;;;;;;;18.42;5.38;;;;;;;;;;5039261;28;20044;-77
2023/01/09 14:46:02;;;;;;;19.90;6.35;;;;;;;;;;5039893;28;20032;-76
2023/01/09 14:48:28;;;;;;;24.98;9.43;;;;;;;;;;5047296;28;20025;-78
2023/01/09 14:50:56;;;;;;;11.43;3.67;;;;;;;;;;5046635;28;20025;-77
2023/01/09 14:53:28;;;;;;;7.93;1.80;;;;;;;;;;5041498;28;20543;-78
2023/01/09 14:55:56;;;;;;;6.90;1.75;;;;;;;;;;5037054;28;20057;-78
2023/01/09 14:58:32;;;;;;;7.45;1.15;;;;;;;;;;5039886;28;20037;-78
2023/01/09 15:01:11;;;;;;;6.40;1.27;;;;;;;;;;5046895;28;20464;-77
2023/01/09 15:03:51;;;;;;;5.65;1.15;;;;;;;;;;5045225;28;20037;-77
2023/01/09 15:06:17;;;;;;;4.47;1.40;;;;;;;;;;5039296;28;20067;-76
2023/01/09 15:08:44;;;;;;;10.90;3.20;;;;;;;;;;5036388;28;20057;-76